Time;durP1;ratioP1;P1;durP2;ratioP2;P2;SDS_P1;SDS_P2;PMS_P1;PMS_P2;Temp;Humidity;BMP_temperature;BMP_pressure;BME280_temperature;BME280_humidity;BME280_pressure;Samples;Min_cycle;Max_cycle;Signal;HPM_P1;HPM_P2
2023/08/05 00:02:19;;;;;;;9.32;6.03;;;;;;;;;;8413999;28;20051;-87
2023/08/05 00:06:22;;;;;;;10.93;5.40;;;;;;;;;;8401070;28;20068;-88
2023/08/05 00:10:26;;;;;;;11.25;5.60;;;;;;;;;;8431381;28;20048;-88
2023/08/05 00:14:29;;;;;;;9.88;4.80;;;;;;;;;;8410351;28;20041;-88
2023/08/05 00:18:32;;;;;;;9.60;5.45;;;;;;;;;;8414029;28;20123;-87
2023/08/05 00:22:35;;;;;;;11.15;4.75;;;;;;;;;;8424504;28;20587;-88
2023/08/05 00:26:39;;;;;;;13.45;5.25;;;;;;;;;;8429580;28;20052;-86
2023/08/05 00:30:42;;;;;;;8.00;5.30;;;;;;;;;;8410417;28;20443;-90
2023/08/05 00:34:45;;;;;;;8.77;5.95;;;;;;;;;;8419494;28;20094;-87
2023/08/05 00:38:47;;;;;;;9.25;5.10;;;;;;;;;;8408822;28;20036;-89
2023/08/05 00:42:52;;;;;;;7.88;5.10;;;;;;;;;;8403056;28;20519;-87
2023/08/05 00:46:54;;;;;;;10.77;5.47;;;;;;;;;;8432584;28;20051;-87
2023/08/05 00:50:58;;;;;;;7.10;4.90;;;;;;;;;;8414667;28;20438;-88
2023/08/05 00:55:01;;;;;;;10.45;5.30;;;;;;;;;;8423332;28;20054;-88
2023/08/05 00:59:06;;;;;;;10.55;5.43;;;;;;;;;;8415458;28;20044;-88
2023/08/05 01:03:08;;;;;;;8.00;5.00;;;;;;;;;;8411896;28;20061;-88
2023/08/05 01:07:13;;;;;;;8.57;5.40;;;;;;;;;;8415271;28;20036;-89
2023/08/05 01:11:16;;;;;;;9.75;5.60;;;;;;;;;;8430940;28;20040;-88
2023/08/05 01:15:20;;;;;;;9.95;5.28;;;;;;;;;;8414500;28;20534;-88
2023/08/05 01:19:26;;;;;;;7.28;5.38;;;;;;;;;;8421963;28;20040;-91
2023/08/05 01:23:35;;;;;;;12.20;5.68;;;;;;;;;;8413729;28;20123;-90
2023/08/05 01:27:40;;;;;;;7.43;5.20;;;;;;;;;;8409589;28;20127;-87
2023/08/05 01:31:45;;;;;;;8.55;4.93;;;;;;;;;;8430866;28;20107;-88
2023/08/05 01:35:49;;;;;;;7.72;5.50;;;;;;;;;;8431006;28;20086;-91
2023/08/05 01:39:51;;;;;;;9.52;5.10;;;;;;;;;;8425447;28;20040;-90
2023/08/05 01:43:59;;;;;;;8.52;5.32;;;;;;;;;;8423636;28;20048;-89
2023/08/05 01:48:02;;;;;;;8.02;5.03;;;;;;;;;;8430724;28;20036;-88
2023/08/05 01:52:05;;;;;;;7.78;4.90;;;;;;;;;;8418909;28;20044;-88
2023/08/05 01:56:08;;;;;;;7.85;4.85;;;;;;;;;;8429891;28;20189;-88
2023/08/05 02:00:13;;;;;;;9.23;4.82;;;;;;;;;;8418288;28;20049;-88
2023/08/05 02:04:16;;;;;;;8.27;4.97;;;;;;;;;;8416941;28;20550;-88
2023/08/05 02:08:19;;;;;;;7.38;5.05;;;;;;;;;;8404170;28;20051;-88
2023/08/05 02:12:21;;;;;;;9.25;5.03;;;;;;;;;;8430025;28;20093;-88
2023/08/05 02:16:26;;;;;;;9.18;5.10;;;;;;;;;;8430517;28;20081;-88
2023/08/05 02:20:29;;;;;;;10.65;5.25;;;;;;;;;;8424081;28;20044;-89
2023/08/05 02:24:31;;;;;;;7.68;5.10;;;;;;;;;;8418720;28;20047;-88
2023/08/05 02:28:34;;;;;;;10.18;5.13;;;;;;;;;;8430216;28;20119;-90
2023/08/05 02:32:38;;;;;;;7.22;5.13;;;;;;;;;;8429949;28;20126;-87
2023/08/05 02:36:41;;;;;;;7.88;5.32;;;;;;;;;;8415801;28;20048;-88
2023/08/05 02:40:44;;;;;;;14.18;5.95;;;;;;;;;;8403278;28;20048;-87
2023/08/05 02:44:46;;;;;;;9.18;5.43;;;;;;;;;;8402535;28;20052;-88
2023/08/05 02:48:51;;;;;;;11.30;5.43;;;;;;;;;;8429809;28;20048;-87
2023/08/05 02:52:56;;;;;;;10.07;5.72;;;;;;;;;;8415567;28;20048;-86
2023/08/05 02:57:02;;;;;;;8.63;5.20;;;;;;;;;;8429014;28;20063;-89
2023/08/05 03:01:08;;;;;;;8.60;5.00;;;;;;;;;;8416217;28;20616;-88
2023/08/05 03:05:15;;;;;;;7.70;5.30;;;;;;;;;;8415437;28;20403;-89
2023/08/05 03:09:18;;;;;;;6.88;4.75;;;;;;;;;;8417272;28;20050;-87
2023/08/05 03:13:20;;;;;;;7.22;4.80;;;;;;;;;;8414993;28;20045;-88
2023/08/05 03:17:23;;;;;;;7.55;4.75;;;;;;;;;;8396057;28;20040;-88
2023/08/05 03:21:28;;;;;;;6.20;4.22;;;;;;;;;;8409460;28;20052;-87
2023/08/05 03:25:31;;;;;;;7.35;4.50;;;;;;;;;;8417171;28;20395;-89
2023/08/05 03:29:34;;;;;;;6.85;4.07;;;;;;;;;;8428933;28;20078;-88
2023/08/05 03:33:36;;;;;;;7.95;4.30;;;;;;;;;;8428734;28;20044;-89
2023/08/05 03:37:41;;;;;;;7.70;4.28;;;;;;;;;;8434159;28;20503;-89
2023/08/05 03:41:45;;;;;;;7.40;4.25;;;;;;;;;;8420839;28;20131;-89
2023/08/05 03:45:51;;;;;;;7.22;4.50;;;;;;;;;;8420699;28;20076;-88
2023/08/05 03:49:54;;;;;;;7.65;4.80;;;;;;;;;;8426588;28;20091;-90
2023/08/05 03:53:58;;;;;;;6.65;4.03;;;;;;;;;;8416576;28;20067;-89
2023/08/05 03:58:01;;;;;;;10.02;4.60;;;;;;;;;;8434602;28;20044;-89
2023/08/05 04:02:05;;;;;;;9.70;4.30;;;;;;;;;;8433595;28;20136;-87
2023/08/05 04:06:07;;;;;;;6.82;4.60;;;;;;;;;;8425995;28;20040;-88
2023/08/05 04:10:13;;;;;;;7.18;3.90;;;;;;;;;;8414314;28;20123;-90
2023/08/05 04:14:18;;;;;;;8.60;5.25;;;;;;;;;;8414954;28;20044;-88
2023/08/05 04:18:21;;;;;;;8.55;4.38;;;;;;;;;;8416060;28;20071;-92
2023/08/05 04:22:26;;;;;;;6.82;4.50;;;;;;;;;;8410987;28;20070;-89
2023/08/05 04:26:35;;;;;;;10.68;4.35;;;;;;;;;;8416150;28;20120;-90
2023/08/05 04:30:38;;;;;;;8.02;4.93;;;;;;;;;;8419935;28;20043;-87
2023/08/05 04:34:41;;;;;;;7.60;4.85;;;;;;;;;;8402728;28;20037;-89
2023/08/05 04:38:44;;;;;;;8.88;4.43;;;;;;;;;;8410155;28;20040;-90
2023/08/05 04:42:48;;;;;;;11.20;4.25;;;;;;;;;;8422268;28;20056;-90
2023/08/05 04:46:51;;;;;;;9.43;4.00;;;;;;;;;;8429670;28;20127;-88
2023/08/05 04:50:56;;;;;;;7.35;3.60;;;;;;;;;;8427764;28;20048;-88
2023/08/05 04:55:08;;;;;;;13.32;4.68;;;;;;;;;;8412384;28;20095;-88
2023/08/05 04:59:13;;;;;;;12.55;5.00;;;;;;;;;;8412037;28;20081;-89
2023/08/05 05:03:16;;;;;;;10.77;5.20;;;;;;;;;;8409333;28;20140;-87
2023/08/05 05:07:19;;;;;;;8.95;5.07;;;;;;;;;;8413823;28;20564;-88
2023/08/05 05:11:23;;;;;;;9.90;4.85;;;;;;;;;;8398341;28;20044;-88
2023/08/05 05:15:27;;;;;;;9.60;5.55;;;;;;;;;;8429651;28;20096;-89
2023/08/05 05:19:30;;;;;;;10.82;5.45;;;;;;;;;;8420246;28;20436;-89
2023/08/05 05:23:33;;;;;;;18.00;5.93;;;;;;;;;;8416124;28;20127;-90
2023/08/05 05:27:36;;;;;;;14.88;6.25;;;;;;;;;;8425664;28;20047;-87
2023/08/05 05:31:41;;;;;;;9.77;6.15;;;;;;;;;;8418283;28;20059;-92
2023/08/05 05:35:44;;;;;;;11.85;6.07;;;;;;;;;;8429332;28;20059;-88
2023/08/05 05:39:47;;;;;;;9.02;5.80;;;;;;;;;;8423974;28;20483;-93
2023/08/05 05:43:50;;;;;;;10.57;5.90;;;;;;;;;;8433525;28;20104;-93
2023/08/05 05:47:57;;;;;;;11.98;7.10;;;;;;;;;;8429015;28;20531;-88
2023/08/05 05:52:00;;;;;;;14.13;5.97;;;;;;;;;;8421516;28;20115;-88
2023/08/05 05:56:04;;;;;;;15.40;7.13;;;;;;;;;;8416487;28;20059;-89
2023/08/05 06:00:09;;;;;;;12.00;6.80;;;;;;;;;;8417995;28;20055;-88
2023/08/05 06:04:14;;;;;;;10.45;6.63;;;;;;;;;;8424906;28;20040;-87
2023/08/05 06:08:17;;;;;;;9.30;5.72;;;;;;;;;;8422632;28;20131;-87
2023/08/05 06:12:22;;;;;;;13.45;6.60;;;;;;;;;;8417040;28;20619;-88
2023/08/05 06:16:25;;;;;;;16.58;6.45;;;;;;;;;;8425435;28;20131;-88
2023/08/05 06:20:29;;;;;;;14.10;7.05;;;;;;;;;;8398964;28;20055;-89
2023/08/05 06:24:32;;;;;;;12.38;7.07;;;;;;;;;;8420913;28;20094;-90
2023/08/05 06:28:35;;;;;;;23.02;8.02;;;;;;;;;;8422105;28;20480;-86
2023/08/05 06:32:38;;;;;;;19.27;10.68;;;;;;;;;;8424528;28;20048;-87
2023/08/05 06:36:43;;;;;;;28.20;11.27;;;;;;;;;;8421849;28;20540;-86
2023/08/05 06:40:46;;;;;;;17.63;10.65;;;;;;;;;;8429261;28;20071;-88
2023/08/05 06:44:49;;;;;;;22.35;9.90;;;;;;;;;;8417572;28;20041;-86
2023/08/05 06:48:52;;;;;;;14.98;9.15;;;;;;;;;;8425847;28;20048;-87
2023/08/05 06:52:57;;;;;;;18.00;9.90;;;;;;;;;;8405840;28;20485;-87
2023/08/05 06:57:00;;;;;;;19.67;10.75;;;;;;;;;;8429371;28;20078;-87
2023/08/05 07:01:03;;;;;;;17.08;11.10;;;;;;;;;;8402156;28;20466;-86
2023/08/05 07:05:06;;;;;;;21.05;9.80;;;;;;;;;;8420465;28;20100;-87
2023/08/05 07:09:11;;;;;;;15.70;9.27;;;;;;;;;;8429134;28;20123;-88
2023/08/05 07:13:14;;;;;;;12.32;8.30;;;;;;;;;;8415094;28;20075;-87
2023/08/05 07:17:19;;;;;;;12.02;6.75;;;;;;;;;;8417594;28;20071;-87
2023/08/05 07:21:22;;;;;;;17.95;8.85;;;;;;;;;;8427146;28;20044;-88
2023/08/05 07:25:27;;;;;;;12.23;6.88;;;;;;;;;;8439203;28;20044;-87
2023/08/05 07:29:32;;;;;;;10.85;6.32;;;;;;;;;;8435573;28;20052;-87
2023/08/05 07:33:37;;;;;;;9.07;5.75;;;;;;;;;;8417037;28;20101;-89
2023/08/05 07:37:43;;;;;;;11.30;6.90;;;;;;;;;;8414762;28;20052;-87
2023/08/05 07:41:49;;;;;;;10.80;5.95;;;;;;;;;;8420432;28;20044;-88
2023/08/05 07:45:52;;;;;;;9.98;5.65;;;;;;;;;;8423042;28;20055;-92
2023/08/05 07:49:56;;;;;;;8.00;5.35;;;;;;;;;;8429689;28;20052;-87
2023/08/05 07:53:59;;;;;;;9.70;6.13;;;;;;;;;;8424726;28;20052;-87
2023/08/05 07:58:05;;;;;;;8.65;5.68;;;;;;;;;;8418537;28;20067;-93
2023/08/05 08:02:10;;;;;;;9.13;5.60;;;;;;;;;;8431542;28;20471;-87
2023/08/05 08:06:16;;;;;;;11.02;5.68;;;;;;;;;;8420696;28;20066;-92
2023/08/05 08:10:24;;;;;;;11.30;5.00;;;;;;;;;;8430958;28;20048;-93
2023/08/05 08:14:29;;;;;;;8.73;4.85;;;;;;;;;;8422268;28;20118;-91
2023/08/05 08:18:32;;;;;;;7.70;4.63;;;;;;;;;;8408733;28;20066;-87
2023/08/05 08:22:35;;;;;;;10.05;4.70;;;;;;;;;;8421261;28;20052;-89
2023/08/05 08:26:41;;;;;;;4.13;3.08;;;;;;;;;;8422660;28;20652;-90
2023/08/05 08:30:54;;;;;;;10.73;4.05;;;;;;;;;;8425559;28;20488;-90
2023/08/05 08:34:58;;;;;;;10.45;5.30;;;;;;;;;;8425974;28;20036;-86
2023/08/05 08:39:03;;;;;;;9.23;4.90;;;;;;;;;;8429152;28;20051;-90
2023/08/05 08:43:07;;;;;;;8.15;4.68;;;;;;;;;;8415276;28;20094;-86
2023/08/05 08:47:13;;;;;;;8.20;4.25;;;;;;;;;;8417445;28;20404;-87
2023/08/05 08:51:18;;;;;;;7.63;4.65;;;;;;;;;;8418525;28;20100;-86
2023/08/05 08:55:22;;;;;;;7.13;4.50;;;;;;;;;;8412299;28;20048;-90
2023/08/05 08:59:25;;;;;;;6.40;3.63;;;;;;;;;;8417281;28;20062;-87
2023/08/05 09:03:32;;;;;;;6.70;4.53;;;;;;;;;;8416183;28;20072;-86
2023/08/05 09:07:37;;;;;;;10.15;4.43;;;;;;;;;;8410979;28;21020;-88
2023/08/05 09:11:40;;;;;;;5.57;4.32;;;;;;;;;;8417763;28;20047;-87
2023/08/05 09:15:43;;;;;;;6.78;4.95;;;;;;;;;;8421814;28;20126;-86
2023/08/05 09:19:47;;;;;;;8.63;4.63;;;;;;;;;;8415616;28;20485;-87
2023/08/05 09:23:50;;;;;;;8.05;3.75;;;;;;;;;;8419972;28;20044;-87
2023/08/05 09:27:53;;;;;;;7.03;4.22;;;;;;;;;;8424501;28;20506;-86
2023/08/05 09:32:01;;;;;;;7.13;4.03;;;;;;;;;;8418632;28;20040;-86
2023/08/05 09:36:11;;;;;;;8.40;4.20;;;;;;;;;;8416584;28;20051;-86
2023/08/05 09:40:21;;;;;;;8.65;4.88;;;;;;;;;;8411943;28;20055;-90
2023/08/05 09:44:25;;;;;;;5.55;3.97;;;;;;;;;;8416347;28;20036;-86
2023/08/05 09:48:30;;;;;;;8.00;4.45;;;;;;;;;;8406580;28;20136;-86
2023/08/05 09:52:37;;;;;;;7.78;4.25;;;;;;;;;;8411092;28;20068;-86
2023/08/05 09:56:40;;;;;;;8.50;4.75;;;;;;;;;;8424094;28;20044;-86
2023/08/05 10:00:48;;;;;;;8.52;4.82;;;;;;;;;;8416827;28;20419;-87
2023/08/05 10:04:53;;;;;;;7.00;4.90;;;;;;;;;;8433247;28;20058;-91
2023/08/05 10:08:58;;;;;;;9.00;4.72;;;;;;;;;;8401463;28;20066;-86
2023/08/05 10:13:08;;;;;;;6.78;4.50;;;;;;;;;;8412944;28;20051;-89
2023/08/05 10:17:11;;;;;;;5.80;4.40;;;;;;;;;;8423981;28;20047;-88
2023/08/05 10:21:38;;;;;;;7.10;4.38;;;;;;;;;;8415733;28;20500;-87
2023/08/05 10:25:46;;;;;;;8.63;4.53;;;;;;;;;;8436560;28;20511;-87
2023/08/05 10:29:57;;;;;;;7.57;4.30;;;;;;;;;;8411338;28;20048;-90
2023/08/05 10:34:10;;;;;;;8.77;4.68;;;;;;;;;;8406962;28;20123;-94
2023/08/05 10:38:18;;;;;;;7.90;4.22;;;;;;;;;;8417375;28;20051;-92
2023/08/05 10:42:34;;;;;;;6.65;4.20;;;;;;;;;;8419116;28;20106;-89
2023/08/05 10:46:37;;;;;;;9.00;4.32;;;;;;;;;;8403073;28;20044;-89
2023/08/05 10:50:41;;;;;;;7.95;4.00;;;;;;;;;;8419843;28;20123;-90
2023/08/05 10:54:44;;;;;;;7.07;3.70;;;;;;;;;;8423807;28;20047;-86
2023/08/05 10:58:50;;;;;;;6.95;3.90;;;;;;;;;;8420288;28;20106;-92
2023/08/05 11:03:30;;;;;;;6.55;4.20;;;;;;;;;;8411153;28;20071;-86
2023/08/05 11:07:34;;;;;;;7.10;4.13;;;;;;;;;;8430113;28;20566;-88
2023/08/05 11:11:38;;;;;;;7.80;4.68;;;;;;;;;;8416833;28;20120;-89
2023/08/05 11:15:43;;;;;;;6.93;4.03;;;;;;;;;;8406238;28;20049;-89
2023/08/05 11:19:52;;;;;;;9.45;4.78;;;;;;;;;;8403132;28;20048;-89
2023/08/05 11:23:55;;;;;;;7.43;4.75;;;;;;;;;;8435023;28;20123;-86
2023/08/05 11:27:59;;;;;;;7.65;5.13;;;;;;;;;;8420538;28;20483;-86
2023/08/05 11:32:03;;;;;;;7.75;4.50;;;;;;;;;;8401984;28;20481;-86
2023/08/05 11:36:06;;;;;;;8.93;5.30;;;;;;;;;;8414721;28;20044;-85
2023/08/05 11:40:10;;;;;;;6.63;4.50;;;;;;;;;;8410148;28;20454;-86
2023/08/05 11:44:13;;;;;;;7.80;4.82;;;;;;;;;;8432923;28;20051;-86
2023/08/05 11:48:21;;;;;;;8.38;5.60;;;;;;;;;;8429932;28;20043;-91
2023/08/05 11:52:24;;;;;;;7.68;5.45;;;;;;;;;;8418882;28;20047;-88
2023/08/05 11:56:33;;;;;;;14.02;5.85;;;;;;;;;;8434447;28;20055;-93
2023/08/05 12:01:03;;;;;;;10.00;5.68;;;;;;;;;;8416288;28;20071;-95
2023/08/05 12:05:10;;;;;;;9.38;5.63;;;;;;;;;;8423495;28;20044;-85
2023/08/05 12:09:14;;;;;;;8.55;6.03;;;;;;;;;;8429058;28;20086;-87
2023/08/05 12:13:18;;;;;;;8.48;6.38;;;;;;;;;;8410121;28;20051;-94
2023/08/05 12:17:21;;;;;;;8.98;6.35;;;;;;;;;;8434794;28;20051;-93
2023/08/05 12:21:28;;;;;;;9.75;6.28;;;;;;;;;;8429957;28;20059;-91
2023/08/05 12:25:32;;;;;;;11.50;7.45;;;;;;;;;;8419996;28;20052;-94
2023/08/05 12:29:37;;;;;;;12.60;6.93;;;;;;;;;;8433463;28;20048;-92
2023/08/05 12:33:40;;;;;;;10.57;6.38;;;;;;;;;;8411765;28;20048;-94
2023/08/05 12:37:48;;;;;;;11.23;6.78;;;;;;;;;;8421064;28;20043;-95
2023/08/05 12:41:53;;;;;;;11.35;6.80;;;;;;;;;;8424385;28;20048;-94
2023/08/05 12:45:56;;;;;;;10.30;7.03;;;;;;;;;;8419737;28;20088;-90
2023/08/05 12:50:00;;;;;;;9.40;6.90;;;;;;;;;;8431841;28;20054;-89
2023/08/05 12:54:05;;;;;;;10.98;6.63;;;;;;;;;;8424920;28;20044;-87
2023/08/05 12:58:09;;;;;;;10.07;6.88;;;;;;;;;;8423914;28;20059;-88
2023/08/05 13:02:11;;;;;;;12.98;6.82;;;;;;;;;;8427552;28;20079;-92
2023/08/05 13:06:17;;;;;;;9.52;7.10;;;;;;;;;;8422778;28;20146;-92
2023/08/05 13:10:22;;;;;;;9.10;6.43;;;;;;;;;;8415440;28;20048;-88
2023/08/05 13:14:29;;;;;;;11.10;7.10;;;;;;;;;;8414371;28;20458;-87
2023/08/05 13:18:33;;;;;;;12.18;6.55;;;;;;;;;;8410088;28;20052;-93
2023/08/05 13:22:38;;;;;;;10.30;7.35;;;;;;;;;;8413819;28;20044;-95
2023/08/05 13:26:44;;;;;;;12.63;7.35;;;;;;;;;;8426566;28;20051;-91
2023/08/05 13:30:48;;;;;;;9.63;7.35;;;;;;;;;;8429854;28;20059;-92
2023/08/05 13:34:52;;;;;;;11.32;7.22;;;;;;;;;;8426854;28;20074;-89
2023/08/05 13:38:57;;;;;;;11.18;7.38;;;;;;;;;;8423355;28;20048;-92
2023/08/05 13:43:03;;;;;;;14.80;8.30;;;;;;;;;;8417716;28;20036;-94
2023/08/05 13:47:07;;;;;;;10.98;7.43;;;;;;;;;;8414064;28;20048;-90
2023/08/05 13:51:11;;;;;;;9.48;6.90;;;;;;;;;;8405406;28;20074;-87
2023/08/05 13:55:15;;;;;;;16.65;10.43;;;;;;;;;;8418860;28;20078;-88
2023/08/05 13:59:19;;;;;;;10.77;7.00;;;;;;;;;;8412125;28;20044;-88
2023/08/05 14:03:23;;;;;;;10.40;7.35;;;;;;;;;;8418834;28;20099;-87
2023/08/05 14:07:26;;;;;;;11.13;7.18;;;;;;;;;;8406899;28;20100;-87
2023/08/05 14:11:31;;;;;;;10.30;7.60;;;;;;;;;;8404066;28;20075;-89
2023/08/05 14:15:36;;;;;;;13.80;7.32;;;;;;;;;;8420975;28;20066;-89
2023/08/05 14:19:39;;;;;;;11.25;8.32;;;;;;;;;;8418250;28;20040;-88
2023/08/05 14:23:44;;;;;;;10.82;7.50;;;;;;;;;;8421846;28;20097;-89
2023/08/05 14:27:50;;;;;;;11.93;8.35;;;;;;;;;;8418210;28;20048;-90
2023/08/05 14:31:57;;;;;;;11.85;7.68;;;;;;;;;;8421526;28;20172;-94
2023/08/05 14:36:00;;;;;;;9.50;7.32;;;;;;;;;;8407751;28;20170;-87
2023/08/05 14:40:03;;;;;;;9.52;7.35;;;;;;;;;;8399317;28;20049;-87
2023/08/05 14:44:06;;;;;;;10.43;7.43;;;;;;;;;;8420445;28;20075;-88
2023/08/05 14:48:16;;;;;;;10.48;6.75;;;;;;;;;;8425526;28;20050;-87
2023/08/05 14:52:19;;;;;;;9.80;6.68;;;;;;;;;;8425918;28;20067;-88
2023/08/05 14:56:22;;;;;;;10.52;6.40;;;;;;;;;;8417557;28;20037;-88
2023/08/05 15:00:26;;;;;;;10.25;7.13;;;;;;;;;;8419110;28;20465;-87
2023/08/05 15:04:35;;;;;;;12.02;8.13;;;;;;;;;;8416512;28;20044;-93
2023/08/05 15:08:38;;;;;;;13.30;7.40;;;;;;;;;;8418936;28;20221;-87
2023/08/05 15:12:41;;;;;;;10.60;7.18;;;;;;;;;;8414256;28;20044;-89
2023/08/05 15:16:46;;;;;;;11.60;7.50;;;;;;;;;;8408948;28;20157;-87
2023/08/05 15:20:51;;;;;;;196.18;98.88;;;;;;;;;;8411673;28;20138;-92
2023/08/05 15:24:57;;;;;;;24.98;15.43;;;;;;;;;;8415219;28;20060;-90
2023/08/05 15:29:04;;;;;;;96.93;57.65;;;;;;;;;;8419155;28;20048;-88
2023/08/05 15:33:07;;;;;;;19.45;14.55;;;;;;;;;;8419973;28;20056;-93
2023/08/05 15:37:15;;;;;;;21.08;15.90;;;;;;;;;;8417480;28;20224;-91
2023/08/05 15:41:21;;;;;;;17.02;14.45;;;;;;;;;;8419821;28;20052;-91
2023/08/05 15:45:25;;;;;;;23.60;15.82;;;;;;;;;;8419925;28;20131;-93
2023/08/05 15:49:29;;;;;;;18.92;15.05;;;;;;;;;;8431035;28;20135;-93
2023/08/05 15:53:37;;;;;;;19.38;14.98;;;;;;;;;;8422638;28;20404;-93
2023/08/05 15:57:41;;;;;;;13.63;9.70;;;;;;;;;;8424790;28;20525;-89
2023/08/05 16:01:44;;;;;;;11.20;8.18;;;;;;;;;;8417923;28;20495;-93
2023/08/05 16:05:49;;;;;;;12.95;9.65;;;;;;;;;;8414488;28;20152;-91
2023/08/05 16:15:18;;;;;;;12.27;8.15;;;;;;;;;;8341784;28;20127;-89
2023/08/05 16:19:27;;;;;;;11.45;8.50;;;;;;;;;;8423713;23;20068;-92
2023/08/05 16:24:06;;;;;;;;;;;;;;;;;;;;;
2023/08/05 16:28:20;;;;;;;9.63;7.82;;;;;;;;;;8301172;28;20042;-94
2023/08/05 16:32:31;;;;;;;9.80;7.70;;;;;;;;;;8318285;28;20049;-93
2023/08/05 16:36:37;;;;;;;;;;;;;;;;;;8290762;28;20057;-93
2023/08/05 16:40:42;;;;;;;10.20;8.40;;;;;;;;;;8324545;28;19974;-90
2023/08/05 16:44:46;;;;;;;9.80;8.05;;;;;;;;;;8316002;28;20099;-90
2023/08/05 16:48:53;;;;;;;11.25;8.02;;;;;;;;;;8313288;28;20042;-88
2023/08/05 16:53:01;;;;;;;10.82;9.35;;;;;;;;;;8315264;28;20124;-93
2023/08/05 16:57:09;;;;;;;10.13;9.02;;;;;;;;;;8299105;28;20053;-92
2023/08/05 17:01:15;;;;;;;12.00;9.80;;;;;;;;;;8315543;28;20044;-89
2023/08/05 17:05:22;;;;;;;12.15;10.60;;;;;;;;;;8311584;28;20395;-88
2023/08/05 17:09:27;;;;;;;12.30;11.00;;;;;;;;;;8304905;28;20128;-88
2023/08/05 17:13:31;;;;;;;15.05;10.85;;;;;;;;;;8287914;28;20612;-88
2023/08/05 17:17:35;;;;;;;11.95;10.63;;;;;;;;;;8302929;28;20056;-88
2023/08/05 17:21:40;;;;;;;13.25;11.25;;;;;;;;;;8317798;28;20536;-90
2023/08/05 17:25:44;;;;;;;14.05;11.20;;;;;;;;;;8268570;28;20080;-91
2023/08/05 17:29:49;;;;;;;17.10;11.48;;;;;;;;;;8316612;28;20152;-95
2023/08/05 17:33:52;;;;;;;15.77;12.68;;;;;;;;;;8306465;28;20045;-89
2023/08/05 17:37:58;;;;;;;11.80;9.45;;;;;;;;;;8322889;28;20057;-89
2023/08/05 17:42:03;;;;;;;14.50;10.85;;;;;;;;;;8296296;28;20057;-90
2023/08/05 17:46:08;;;;;;;11.02;9.82;;;;;;;;;;8296359;28;20053;-90
2023/08/05 17:50:12;;;;;;;12.05;8.25;;;;;;;;;;8295154;28;20103;-94
2023/08/05 17:54:19;;;;;;;13.02;9.18;;;;;;;;;;8301957;28;20046;-91
2023/08/05 17:58:24;;;;;;;12.90;10.23;;;;;;;;;;8321508;28;20128;-89
2023/08/05 18:02:29;;;;;;;12.93;8.32;;;;;;;;;;8291309;28;20108;-93
2023/08/05 18:06:34;;;;;;;11.20;8.50;;;;;;;;;;8319205;28;20091;-92
2023/08/05 18:10:39;;;;;;;10.82;7.50;;;;;;;;;;8292041;28;20100;-88
2023/08/05 18:14:46;;;;;;;10.88;8.25;;;;;;;;;;8306719;28;20088;-88
2023/08/05 18:18:49;;;;;;;10.98;8.18;;;;;;;;;;8300512;28;20046;-93
2023/08/05 18:22:53;;;;;;;14.52;8.55;;;;;;;;;;8312618;28;20053;-91
2023/08/05 18:27:00;;;;;;;15.05;10.60;;;;;;;;;;8309312;28;20508;-88
2023/08/05 18:31:05;;;;;;;8.88;7.60;;;;;;;;;;8284839;28;20092;-90
2023/08/05 18:35:09;;;;;;;14.35;7.32;;;;;;;;;;8328431;28;20524;-90
2023/08/05 18:39:13;;;;;;;14.27;9.07;;;;;;;;;;8315079;28;20480;-91
2023/08/05 18:43:20;;;;;;;13.27;8.85;;;;;;;;;;8306388;28;20707;-89
2023/08/05 18:47:32;;;;;;;12.95;8.68;;;;;;;;;;8297305;28;20057;-89
2023/08/05 18:51:38;;;;;;;15.98;9.10;;;;;;;;;;8303818;28;20049;-90
2023/08/05 18:55:47;;;;;;;11.45;9.10;;;;;;;;;;8305186;28;20124;-90
2023/08/05 18:59:52;;;;;;;15.18;9.20;;;;;;;;;;8297426;28;20077;-90
2023/08/05 19:03:56;;;;;;;14.77;9.27;;;;;;;;;;8330044;28;20542;-89
2023/08/05 19:08:00;;;;;;;12.27;8.07;;;;;;;;;;8304601;28;20099;-88
2023/08/05 19:12:04;;;;;;;11.23;8.35;;;;;;;;;;8323045;28;20076;-88
2023/08/05 19:16:10;;;;;;;10.80;6.57;;;;;;;;;;8323165;28;20135;-89
2023/08/05 19:20:15;;;;;;;8.52;7.43;;;;;;;;;;8311288;28;20104;-89
2023/08/05 19:24:19;;;;;;;11.23;7.10;;;;;;;;;;8321995;28;20053;-87
2023/08/05 19:28:24;;;;;;;10.15;6.90;;;;;;;;;;8265807;28;20067;-88
2023/08/05 19:32:30;;;;;;;10.57;7.18;;;;;;;;;;8316091;28;20046;-88
2023/08/05 19:36:33;;;;;;;13.30;8.63;;;;;;;;;;8308068;28;20045;-87
2023/08/05 19:40:37;;;;;;;10.02;8.43;;;;;;;;;;8322488;28;20111;-89
2023/08/05 19:44:45;;;;;;;11.40;8.73;;;;;;;;;;8335482;28;20501;-88
2023/08/05 19:48:50;;;;;;;9.95;8.45;;;;;;;;;;8335384;28;20041;-86
2023/08/05 19:52:53;;;;;;;12.15;8.55;;;;;;;;;;8333550;28;20393;-87
2023/08/05 19:56:57;;;;;;;11.60;9.02;;;;;;;;;;8314015;28;20124;-87
2023/08/05 20:01:02;;;;;;;11.13;8.30;;;;;;;;;;8334416;28;20566;-89
2023/08/05 20:05:08;;;;;;;12.00;9.50;;;;;;;;;;8313866;28;20141;-90
2023/08/05 20:09:12;;;;;;;10.85;9.32;;;;;;;;;;8334943;28;20041;-92
2023/08/05 20:13:16;;;;;;;12.00;9.32;;;;;;;;;;8321664;28;20577;-88
2023/08/05 20:17:21;;;;;;;11.63;8.63;;;;;;;;;;8320975;28;20099;-87
2023/08/05 20:21:27;;;;;;;13.65;9.52;;;;;;;;;;8345532;28;20060;-88
2023/08/05 20:25:32;;;;;;;12.90;10.65;;;;;;;;;;8301057;28;20069;-87
2023/08/05 20:29:36;;;;;;;12.95;11.13;;;;;;;;;;8308487;28;20076;-87
2023/08/05 20:33:40;;;;;;;15.40;10.25;;;;;;;;;;8320673;28;20092;-88
2023/08/05 20:37:46;;;;;;;12.52;10.43;;;;;;;;;;8320368;28;20045;-87
2023/08/05 20:41:50;;;;;;;15.70;10.45;;;;;;;;;;8333710;28;20561;-87
2023/08/05 20:45:53;;;;;;;13.70;11.52;;;;;;;;;;8312829;28;20065;-87
2023/08/05 20:49:56;;;;;;;16.85;11.35;;;;;;;;;;8296735;28;20096;-87
2023/08/05 20:54:01;;;;;;;14.30;11.88;;;;;;;;;;8318498;28;20045;-88
2023/08/05 20:58:05;;;;;;;15.68;12.50;;;;;;;;;;8297366;28;20064;-87
2023/08/05 21:02:08;;;;;;;14.63;10.98;;;;;;;;;;8332778;28;20409;-87
2023/08/05 21:06:12;;;;;;;14.15;10.82;;;;;;;;;;8308110;28;20049;-87
2023/08/05 21:10:16;;;;;;;19.25;11.52;;;;;;;;;;8330618;28;20054;-87
2023/08/05 21:14:20;;;;;;;12.65;9.95;;;;;;;;;;8322068;28;20057;-87
2023/08/05 21:18:23;;;;;;;10.70;8.45;;;;;;;;;;8314996;28;20064;-88
2023/08/05 21:22:27;;;;;;;9.20;7.30;;;;;;;;;;8298209;28;20066;-86
2023/08/05 21:26:31;;;;;;;11.35;7.78;;;;;;;;;;8312691;28;20042;-88
2023/08/05 21:30:34;;;;;;;11.50;8.35;;;;;;;;;;8320909;28;20144;-89
2023/08/05 21:34:37;;;;;;;9.45;7.20;;;;;;;;;;8326225;28;20045;-89
2023/08/05 21:38:40;;;;;;;10.57;8.27;;;;;;;;;;8345004;28;20049;-88
2023/08/05 21:42:44;;;;;;;16.88;9.55;;;;;;;;;;8331802;28;20517;-87
2023/08/05 21:46:48;;;;;;;13.15;9.23;;;;;;;;;;8308675;28;20046;-87
2023/08/05 21:50:51;;;;;;;17.13;11.35;;;;;;;;;;8315210;28;20095;-88
2023/08/05 21:54:53;;;;;;;22.58;15.02;;;;;;;;;;8321344;28;20041;-88
2023/08/05 21:58:58;;;;;;;18.73;12.13;;;;;;;;;;8317997;28;20495;-88
2023/08/05 22:03:02;;;;;;;8.90;6.50;;;;;;;;;;8317748;28;20130;-88
2023/08/05 22:07:05;;;;;;;9.68;5.70;;;;;;;;;;8298410;28;20497;-87
2023/08/05 22:11:10;;;;;;;6.93;4.95;;;;;;;;;;8308444;28;20519;-89
2023/08/05 22:15:14;;;;;;;12.07;6.32;;;;;;;;;;8305159;28;20080;-88
2023/08/05 22:19:17;;;;;;;9.15;7.00;;;;;;;;;;8330591;28;20087;-88
2023/08/05 22:23:20;;;;;;;10.30;6.18;;;;;;;;;;8317793;28;20049;-90
2023/08/05 22:27:23;;;;;;;11.75;7.20;;;;;;;;;;8304222;28;20037;-87
2023/08/05 22:31:28;;;;;;;11.98;7.47;;;;;;;;;;8330250;28;20045;-87
2023/08/05 22:35:31;;;;;;;13.35;8.75;;;;;;;;;;8330428;28;20137;-87
2023/08/05 22:39:35;;;;;;;16.17;10.02;;;;;;;;;;8330377;28;20068;-87
2023/08/05 22:43:38;;;;;;;50.35;9.70;;;;;;;;;;8317342;28;20057;-88
2023/08/05 22:47:42;;;;;;;16.13;8.35;;;;;;;;;;8330415;28;20049;-87
2023/08/05 22:51:45;;;;;;;8.27;5.22;;;;;;;;;;8329859;28;20048;-86
2023/08/05 22:55:49;;;;;;;7.03;5.25;;;;;;;;;;8330098;28;20481;-88
2023/08/05 22:59:52;;;;;;;8.77;6.20;;;;;;;;;;8325573;28;20064;-88
2023/08/05 23:03:57;;;;;;;8.38;4.82;;;;;;;;;;8317435;28;20049;-90
2023/08/05 23:08:00;;;;;;;11.98;6.57;;;;;;;;;;8306343;28;20084;-90
2023/08/05 23:12:03;;;;;;;11.40;7.57;;;;;;;;;;8327269;28;20056;-91
2023/08/05 23:16:11;;;;;;;10.85;6.80;;;;;;;;;;8307034;28;20073;-88
2023/08/05 23:20:15;;;;;;;10.80;6.97;;;;;;;;;;8317233;28;20127;-87
2023/08/05 23:24:19;;;;;;;10.70;7.53;;;;;;;;;;8296847;28;20054;-87
2023/08/05 23:28:22;;;;;;;13.32;7.65;;;;;;;;;;8327792;28;20058;-90
2023/08/05 23:32:24;;;;;;;10.65;7.07;;;;;;;;;;8319115;28;20502;-87
2023/08/05 23:36:29;;;;;;;16.50;8.80;;;;;;;;;;8324805;28;20049;-90
2023/08/05 23:40:32;;;;;;;13.45;8.65;;;;;;;;;;8330080;28;20120;-90
2023/08/05 23:44:35;;;;;;;14.00;9.80;;;;;;;;;;8325006;28;20143;-89
2023/08/05 23:48:38;;;;;;;16.35;9.85;;;;;;;;;;8321292;28;20064;-89
2023/08/05 23:52:42;;;;;;;16.48;9.57;;;;;;;;;;8332552;28;20045;-88
2023/08/05 23:56:45;;;;;;;17.35;10.63;;;;;;;;;;8322675;28;20076;-88
